createdAt,value
2022-08-21T00:01:39.456Z,66.80
2022-08-21T00:04:07.540Z,66.80
2022-08-21T00:06:34.760Z,66.70
2022-08-21T00:09:06.305Z,66.40
2022-08-21T00:11:34.529Z,66.10
2022-08-21T00:14:01.782Z,66.00
2022-08-21T00:16:28.481Z,66.50
2022-08-21T00:18:55.314Z,66.00
2022-08-21T00:21:23.386Z,66.60
2022-08-21T00:23:50.136Z,66.70
2022-08-21T00:26:16.738Z,66.80
2022-08-21T00:28:43.622Z,66.70
2022-08-21T00:31:10.422Z,66.90
2022-08-21T00:33:37.146Z,67.10
2022-08-21T00:36:04.233Z,67.80
2022-08-21T00:38:31.019Z,67.10
2022-08-21T00:41:00.254Z,67.30
2022-08-21T00:43:40.869Z,67.70
2022-08-21T00:46:07.741Z,67.60
2022-08-21T00:48:34.762Z,67.60
2022-08-21T00:51:06.776Z,67.80
2022-08-21T00:53:33.622Z,67.80
2022-08-21T00:56:00.677Z,67.70
2022-08-21T00:58:28.385Z,67.60
2022-08-21T01:00:55.254Z,67.70
2022-08-21T01:03:23.973Z,68.00
2022-08-21T01:05:51.564Z,68.00
2022-08-21T01:08:19.237Z,68.30
2022-08-21T01:10:46.707Z,68.10
2022-08-21T01:13:19.294Z,68.10
2022-08-21T01:15:49.638Z,67.90
2022-08-21T01:18:17.278Z,68.00
2022-08-21T01:20:46.971Z,68.10
2022-08-21T01:23:17.464Z,67.70
2022-08-21T01:25:44.020Z,68.30
2022-08-21T01:28:13.405Z,67.00
2022-08-21T01:30:40.789Z,66.50
2022-08-21T01:33:07.533Z,66.70
2022-08-21T01:35:34.606Z,66.30
2022-08-21T01:38:01.234Z,66.40
2022-08-21T01:40:27.945Z,66.00
2022-08-21T01:42:54.721Z,65.90
2022-08-21T01:45:21.532Z,65.80
2022-08-21T01:47:48.315Z,65.80
2022-08-21T01:50:15.849Z,65.60
2022-08-21T01:52:42.769Z,65.70
2022-08-21T01:55:11.802Z,65.50
2022-08-21T01:57:38.541Z,65.40
2022-08-21T02:00:06.344Z,65.60
2022-08-21T02:02:33.065Z,65.70
2022-08-21T02:04:59.759Z,65.60
2022-08-21T02:07:26.538Z,65.60
2022-08-21T02:09:53.105Z,65.80
2022-08-21T02:12:20.246Z,66.10
2022-08-21T02:14:46.977Z,66.20
2022-08-21T02:17:14.073Z,66.60
2022-08-21T02:19:41.054Z,67.20
2022-08-21T02:22:10.900Z,67.20
2022-08-21T02:24:50.066Z,67.70
2022-08-21T02:27:26.211Z,67.40
2022-08-21T02:29:54.809Z,67.60
2022-08-21T02:32:22.421Z,67.70
2022-08-21T02:34:50.007Z,67.80
2022-08-21T02:37:16.857Z,67.80
2022-08-21T02:39:43.655Z,67.60
2022-08-21T02:42:10.426Z,67.90
2022-08-21T02:44:37.021Z,68.10
2022-08-21T02:47:03.639Z,68.20
2022-08-21T02:49:30.233Z,68.10
2022-08-21T02:51:56.881Z,68.50
2022-08-21T02:54:24.395Z,69.10
2022-08-21T02:56:50.985Z,68.70
2022-08-21T02:59:17.557Z,69.70
2022-08-21T03:01:44.168Z,69.80
2022-08-21T03:04:11.369Z,70.50
2022-08-21T03:06:37.992Z,69.80
2022-08-21T03:09:04.828Z,70.40
2022-08-21T03:11:31.415Z,70.80
2022-08-21T03:13:58.059Z,71.40
2022-08-21T03:16:24.636Z,70.80
2022-08-21T03:18:51.185Z,71.80
2022-08-21T03:21:19.803Z,72.60
2022-08-21T03:23:47.611Z,73.20
2022-08-21T03:26:14.668Z,73.40
2022-08-21T03:28:42.791Z,73.60
2022-08-21T03:31:09.692Z,73.80
2022-08-21T03:33:36.388Z,73.60
2022-08-21T03:36:06.716Z,73.90
2022-08-21T03:38:34.306Z,73.60
2022-08-21T03:41:01.593Z,73.70
2022-08-21T03:43:30.896Z,74.70
2022-08-21T03:45:59.356Z,73.30
2022-08-21T03:48:25.957Z,74.30
2022-08-21T03:50:52.937Z,75.20
2022-08-21T03:53:19.790Z,73.90
2022-08-21T03:55:47.638Z,75.20
2022-08-21T03:58:18.355Z,75.80
2022-08-21T04:00:46.407Z,76.20
2022-08-21T04:03:13.226Z,76.00
2022-08-21T04:05:40.114Z,75.00
2022-08-21T04:08:06.992Z,76.60
2022-08-21T04:10:35.602Z,76.40
2022-08-21T04:13:02.561Z,76.90
2022-08-21T04:15:29.361Z,77.50
2022-08-21T04:17:56.031Z,77.80
2022-08-21T04:20:23.110Z,77.20
2022-08-21T04:22:51.454Z,78.20
2022-08-21T04:25:19.806Z,78.10
2022-08-21T04:27:46.722Z,78.10
2022-08-21T04:30:14.447Z,78.50
2022-08-21T04:32:43.819Z,77.70
2022-08-21T04:35:11.263Z,78.20
2022-08-21T04:37:41.997Z,78.90
2022-08-21T04:40:10.469Z,78.90
2022-08-21T04:42:42.529Z,79.30
2022-08-21T04:45:09.218Z,78.50
2022-08-21T04:47:41.695Z,79.30
2022-08-21T04:50:20.433Z,79.60
2022-08-21T04:52:47.607Z,79.50
2022-08-21T04:55:14.528Z,79.30
2022-08-21T04:57:49.031Z,79.40
2022-08-21T05:00:19.253Z,79.70
2022-08-21T05:02:48.390Z,79.40
2022-08-21T05:05:15.531Z,79.90
2022-08-21T05:07:43.779Z,79.60
2022-08-21T05:10:10.727Z,79.60
2022-08-21T05:12:39.476Z,78.70
2022-08-21T05:15:06.214Z,78.50
2022-08-21T05:17:33.676Z,78.70
2022-08-21T05:20:00.266Z,79.00
2022-08-21T05:22:26.868Z,79.20
2022-08-21T05:24:53.626Z,79.40
2022-08-21T05:27:20.839Z,79.20
2022-08-21T05:29:47.482Z,79.10
2022-08-21T05:32:14.817Z,78.40
2022-08-21T05:34:42.212Z,78.50
2022-08-21T05:37:11.156Z,77.60
2022-08-21T05:40:20.673Z,78.00
2022-08-21T05:42:24.358Z,75.10
2022-08-21T05:44:51.112Z,71.30
2022-08-21T05:47:17.749Z,68.70
2022-08-21T05:49:44.259Z,66.00
2022-08-21T05:52:10.834Z,63.30
2022-08-21T05:54:38.377Z,60.70
2022-08-21T05:57:05.380Z,58.20
2022-08-21T05:59:31.940Z,58.10
2022-08-21T06:02:01.285Z,53.90
2022-08-21T06:04:31.640Z,53.00
2022-08-21T06:06:58.224Z,52.60
2022-08-21T06:09:24.891Z,50.20
2022-08-21T06:11:51.478Z,48.80
2022-08-21T06:14:18.073Z,46.90
2022-08-21T06:16:44.667Z,45.90
2022-08-21T06:19:11.499Z,45.50
2022-08-21T06:21:38.089Z,44.60
2022-08-21T06:24:05.715Z,44.20
2022-08-21T06:26:32.336Z,42.80
2022-08-21T06:28:59.100Z,42.80
2022-08-21T06:31:26.917Z,42.10
2022-08-21T06:33:54.256Z,41.10
2022-08-21T06:36:21.916Z,42.30
2022-08-21T06:38:50.982Z,40.30
2022-08-21T06:41:19.490Z,41.00
2022-08-21T06:43:53.897Z,41.70
2022-08-21T06:46:20.661Z,39.60
2022-08-21T06:48:47.354Z,39.90
2022-08-21T06:51:13.952Z,39.20
2022-08-21T06:53:40.676Z,38.30
2022-08-21T06:56:07.274Z,38.80
2022-08-21T06:58:33.938Z,39.00
2022-08-21T07:01:01.429Z,38.60
2022-08-21T07:03:30.363Z,37.80
2022-08-21T07:05:59.322Z,38.00
2022-08-21T07:08:26.813Z,37.60
2022-08-21T07:10:54.414Z,38.20
2022-08-21T07:13:21.041Z,37.60
2022-08-21T07:15:47.650Z,38.10
2022-08-21T07:18:14.361Z,37.70
2022-08-21T07:20:41.933Z,40.50
2022-08-21T07:23:10.309Z,40.20
2022-08-21T07:25:37.309Z,38.00
2022-08-21T07:28:04.019Z,37.60
2022-08-21T07:30:30.671Z,37.00
2022-08-21T07:32:57.652Z,36.80
2022-08-21T07:35:25.341Z,35.80
2022-08-21T07:37:53.686Z,35.30
2022-08-21T07:40:21.254Z,37.00
2022-08-21T07:42:51.221Z,38.80
2022-08-21T07:45:19.628Z,37.70
2022-08-21T07:47:46.791Z,37.30
2022-08-21T07:50:14.845Z,36.20
2022-08-21T07:52:42.726Z,35.10
2022-08-21T07:55:14.207Z,33.40
2022-08-21T07:57:42.799Z,33.60
2022-08-21T08:00:12.359Z,32.90
2022-08-21T08:02:39.692Z,32.10
2022-08-21T08:05:08.670Z,33.20
2022-08-21T08:07:35.765Z,32.90
2022-08-21T08:10:03.999Z,32.00
2022-08-21T08:12:31.132Z,32.10
2022-08-21T08:14:59.175Z,32.70
2022-08-21T08:17:26.463Z,31.10
2022-08-21T08:19:53.554Z,31.30
2022-08-21T08:22:21.553Z,31.20
2022-08-21T08:24:49.117Z,30.40
2022-08-21T08:27:17.262Z,30.00
2022-08-21T08:29:45.017Z,30.40
2022-08-21T08:32:12.284Z,30.00
2022-08-21T08:34:40.016Z,30.00
2022-08-21T08:37:08.902Z,29.70
2022-08-21T08:39:36.195Z,29.50
2022-08-21T08:42:32.055Z,29.50
2022-08-21T08:44:58.385Z,29.50
2022-08-21T08:47:25.961Z,29.50
2022-08-21T08:50:12.317Z,29.50
2022-08-21T08:53:11.676Z,28.50
2022-08-21T08:55:41.333Z,29.30
2022-08-21T08:58:08.730Z,28.60
2022-08-21T09:00:35.821Z,28.60
2022-08-21T09:03:04.368Z,29.00
2022-08-21T09:05:43.994Z,29.20
2022-08-21T09:08:35.452Z,29.80
2022-08-21T09:11:02.456Z,29.30
2022-08-21T09:13:47.934Z,28.20
2022-08-21T09:16:33.511Z,28.10
2022-08-21T09:19:08.761Z,27.80
2022-08-21T09:21:47.710Z,27.50
2022-08-21T09:24:34.633Z,27.80
2022-08-21T09:27:15.527Z,27.10
2022-08-21T09:29:44.219Z,28.00
2022-08-21T09:32:22.686Z,28.10
2022-08-21T09:35:16.515Z,28.20
2022-08-21T09:37:46.916Z,28.10
2022-08-21T09:40:20.593Z,29.90
2022-08-21T09:42:55.734Z,27.80
2022-08-21T09:45:22.833Z,27.50
2022-08-21T09:47:49.806Z,27.60
2022-08-21T09:50:18.544Z,27.80
2022-08-21T09:52:52.106Z,30.00
2022-08-21T09:55:44.198Z,28.60
2022-08-21T09:58:12.800Z,27.60
2022-08-21T10:00:39.991Z,28.20
2022-08-21T10:03:13.000Z,28.30
2022-08-21T10:05:40.905Z,28.30
2022-08-21T10:08:17.377Z,30.00
2022-08-21T10:10:44.769Z,28.30
2022-08-21T10:13:23.353Z,28.30
2022-08-21T10:15:57.622Z,28.00
2022-08-21T10:18:31.025Z,28.00
2022-08-21T10:20:58.130Z,29.70
2022-08-21T10:23:30.816Z,28.20
2022-08-21T10:26:18.770Z,29.80
2022-08-21T10:28:45.915Z,28.10
2022-08-21T10:31:19.792Z,28.20
2022-08-21T10:33:56.195Z,28.70
2022-08-21T10:36:27.879Z,28.70
2022-08-21T10:39:23.321Z,27.80
2022-08-21T10:41:55.656Z,29.00
2022-08-21T10:44:36.170Z,27.90
2022-08-21T10:47:09.907Z,29.50
2022-08-21T10:49:55.844Z,29.30
2022-08-21T10:52:35.059Z,29.60
2022-08-21T10:55:11.035Z,27.20
2022-08-21T10:57:42.352Z,27.30
2022-08-21T11:00:14.343Z,28.00
2022-08-21T11:02:42.364Z,29.50
2022-08-21T11:05:12.378Z,27.20
2022-08-21T11:07:39.456Z,28.20
2022-08-21T11:10:12.110Z,27.50
2022-08-21T11:12:45.414Z,28.50
2022-08-21T11:15:36.974Z,29.00
2022-08-21T11:18:25.850Z,27.40
2022-08-21T11:21:00.102Z,29.60
2022-08-21T11:23:31.103Z,27.80
2022-08-21T11:26:09.010Z,29.60
2022-08-21T11:28:43.771Z,29.80
2022-08-21T11:31:10.814Z,29.60
2022-08-21T11:33:40.199Z,29.20
2022-08-21T11:36:16.514Z,26.90
2022-08-21T11:38:48.436Z,29.70
2022-08-21T11:41:29.152Z,29.30
2022-08-21T11:44:14.487Z,27.70
2022-08-21T11:46:47.480Z,27.60
2022-08-21T11:49:26.464Z,28.10
2022-08-21T11:52:12.132Z,29.00
2022-08-21T11:54:44.693Z,27.70
2022-08-21T11:57:14.800Z,27.40
2022-08-21T11:59:48.809Z,28.20
2022-08-21T12:02:17.403Z,28.50
2022-08-21T12:04:49.884Z,29.00
2022-08-21T12:07:31.837Z,28.30
2022-08-21T12:10:00.010Z,30.80
2022-08-21T12:12:31.550Z,30.80
2022-08-21T12:15:24.797Z,30.50
2022-08-21T12:18:06.049Z,27.70
2022-08-21T12:20:36.171Z,29.00
2022-08-21T12:23:26.312Z,31.80
2022-08-21T12:26:12.511Z,29.60
2022-08-21T12:28:40.305Z,31.90
2022-08-21T12:31:18.519Z,32.70
2022-08-21T12:33:51.185Z,32.40
2022-08-21T12:36:23.388Z,32.00
2022-08-21T12:38:55.650Z,31.60
2022-08-21T12:41:33.763Z,31.10
2022-08-21T12:44:10.385Z,30.00
2022-08-21T12:46:52.441Z,28.00
2022-08-21T12:49:34.415Z,28.00
2022-08-21T12:52:01.354Z,30.60
2022-08-21T12:54:33.570Z,30.70
2022-08-21T12:57:03.062Z,30.60
2022-08-21T12:59:30.693Z,30.00
2022-08-21T13:01:59.270Z,29.20
2022-08-21T13:04:37.434Z,29.00
2022-08-21T13:07:08.178Z,29.40
2022-08-21T13:09:35.495Z,31.80
2022-08-21T13:12:02.517Z,29.60
2022-08-21T13:14:55.679Z,30.00
2022-08-21T13:17:25.893Z,30.80
2022-08-21T13:19:57.282Z,32.40
2022-08-21T13:22:33.494Z,30.80
2022-08-21T13:25:06.935Z,31.00
2022-08-21T13:27:35.434Z,33.30
2022-08-21T13:30:12.814Z,30.00
2022-08-21T13:32:51.497Z,30.20
2022-08-21T13:35:18.575Z,30.40
2022-08-21T13:37:46.397Z,32.40
2022-08-21T13:40:16.166Z,30.30
2022-08-21T13:42:44.433Z,31.50
2022-08-21T13:45:15.342Z,31.40
2022-08-21T13:47:42.664Z,32.30
2022-08-21T13:50:13.044Z,32.40
2022-08-21T13:52:47.595Z,29.90
2022-08-21T13:55:17.039Z,30.80
2022-08-21T13:57:43.893Z,30.20
2022-08-21T14:00:12.214Z,29.90
2022-08-21T14:02:42.183Z,31.90
2022-08-21T14:05:16.770Z,31.10
2022-08-21T14:07:46.713Z,34.50
2022-08-21T14:10:16.489Z,32.80
2022-08-21T14:12:45.828Z,32.80
2022-08-21T14:15:14.695Z,37.30
2022-08-21T14:17:43.167Z,36.40
2022-08-21T14:22:39.906Z,33.20
2022-08-21T14:25:08.894Z,34.20
2022-08-21T14:27:39.209Z,34.50
2022-08-21T14:30:17.525Z,34.70
2022-08-21T14:32:46.079Z,34.40
2022-08-21T14:35:13.984Z,34.90
2022-08-21T14:37:45.028Z,38.60
2022-08-21T14:40:13.601Z,37.80
2022-08-21T14:42:42.203Z,35.20
2022-08-21T14:45:15.947Z,37.60
2022-08-21T14:47:46.104Z,35.20
2022-08-21T14:50:13.768Z,36.00
2022-08-21T14:52:41.172Z,35.80
2022-08-21T14:55:09.335Z,40.20
2022-08-21T14:57:36.301Z,36.60
2022-08-21T15:00:05.484Z,36.60
2022-08-21T15:02:32.657Z,36.70
2022-08-21T15:04:59.857Z,40.00
2022-08-21T15:07:26.914Z,37.10
2022-08-21T15:09:53.954Z,37.50
2022-08-21T15:12:20.882Z,37.20
2022-08-21T15:14:47.834Z,36.90
2022-08-21T15:17:14.893Z,37.60
2022-08-21T15:19:42.502Z,36.80
2022-08-21T15:22:18.580Z,37.50
2022-08-21T15:24:46.267Z,38.90
2022-08-21T15:27:13.675Z,38.00
2022-08-21T15:29:44.032Z,37.60
2022-08-21T15:32:18.763Z,37.80
2022-08-21T15:34:45.626Z,38.00
2022-08-21T15:37:12.585Z,38.20
2022-08-21T15:39:41.372Z,38.60
2022-08-21T15:42:11.156Z,38.50
2022-08-21T15:44:39.159Z,38.10
2022-08-21T15:47:07.540Z,38.40
2022-08-21T15:49:34.504Z,38.00
2022-08-21T15:52:01.710Z,41.20
2022-08-21T15:54:28.619Z,44.60
2022-08-21T15:56:55.535Z,38.00
2022-08-21T15:59:23.419Z,40.50
2022-08-21T16:01:52.055Z,37.80
2022-08-21T16:04:27.368Z,43.70
2022-08-21T16:06:59.306Z,45.10
2022-08-21T16:09:30.899Z,39.30
2022-08-21T16:11:59.316Z,38.80
2022-08-21T16:14:26.417Z,45.70
2022-08-21T16:16:54.250Z,39.00
2022-08-21T16:19:22.071Z,40.50
2022-08-21T16:21:49.063Z,44.20
2022-08-21T16:24:16.067Z,40.30
2022-08-21T16:26:43.490Z,41.70
2022-08-21T16:29:10.701Z,42.80
2022-08-21T16:31:37.811Z,43.10
2022-08-21T16:34:05.044Z,41.80
2022-08-21T16:36:32.361Z,41.30
2022-08-21T16:39:00.372Z,43.20
2022-08-21T16:41:29.011Z,43.20
2022-08-21T16:43:56.516Z,43.70
2022-08-21T16:46:23.725Z,44.50
2022-08-21T16:48:50.611Z,43.10
2022-08-21T16:51:17.859Z,43.60
2022-08-21T16:53:45.235Z,44.80
2022-08-21T16:56:13.138Z,48.20
2022-08-21T16:58:41.448Z,44.60
2022-08-21T17:01:10.550Z,46.40
2022-08-21T17:03:39.675Z,47.50
2022-08-21T17:06:07.807Z,43.80
2022-08-21T17:08:35.034Z,44.00
2022-08-21T17:11:02.791Z,44.50
2022-08-21T17:13:30.585Z,44.80
2022-08-21T17:15:57.786Z,45.30
2022-08-21T17:18:25.451Z,45.70
2022-08-21T17:20:52.633Z,45.60
2022-08-21T17:23:19.951Z,46.00
2022-08-21T17:25:48.682Z,45.60
2022-08-21T17:28:22.537Z,45.20
2022-08-21T17:30:50.034Z,45.50
2022-08-21T17:33:18.514Z,46.00
2022-08-21T17:35:45.981Z,45.80
2022-08-21T17:38:14.890Z,46.30
2022-08-21T17:40:42.718Z,46.20
2022-08-21T17:43:12.924Z,45.90
2022-08-21T17:45:40.382Z,46.70
2022-08-21T17:48:07.710Z,46.80
2022-08-21T17:50:35.392Z,47.50
2022-08-21T17:53:02.414Z,47.80
2022-08-21T17:55:29.627Z,48.30
2022-08-21T17:57:56.983Z,48.40
2022-08-21T18:00:25.323Z,48.20
2022-08-21T18:03:03.320Z,47.90
2022-08-21T18:05:30.875Z,47.00
2022-08-21T18:07:57.817Z,47.40
2022-08-21T18:10:24.894Z,46.80
2022-08-21T18:12:51.952Z,46.50
2022-08-21T18:15:20.170Z,47.10
2022-08-21T18:17:49.117Z,47.00
2022-08-21T18:20:17.061Z,48.00
2022-08-21T18:22:44.133Z,47.30
2022-08-21T18:25:11.629Z,47.30
2022-08-21T18:27:39.236Z,47.60
2022-08-21T18:30:06.659Z,47.80
2022-08-21T18:32:34.126Z,47.80
2022-08-21T18:35:01.972Z,47.90
2022-08-21T18:37:29.718Z,48.30
2022-08-21T18:39:56.692Z,48.60
2022-08-21T18:42:28.313Z,48.50
2022-08-21T18:44:59.442Z,48.70
2022-08-21T18:47:29.032Z,48.50
2022-08-21T18:49:56.138Z,48.50
2022-08-21T18:52:23.262Z,49.20
2022-08-21T18:54:55.753Z,48.90
2022-08-21T18:57:24.270Z,49.20
2022-08-21T18:59:53.427Z,49.10
2022-08-21T19:02:20.288Z,49.40
2022-08-21T19:04:48.064Z,49.70
2022-08-21T19:07:15.855Z,49.80
2022-08-21T19:09:49.311Z,49.80
2022-08-21T19:12:26.143Z,50.40
2022-08-21T19:14:56.588Z,50.70
2022-08-21T19:17:24.842Z,51.00
2022-08-21T19:19:51.992Z,50.50
2022-08-21T19:22:18.668Z,50.80
2022-08-21T19:24:50.182Z,51.10
2022-08-21T19:27:16.996Z,51.30
2022-08-21T19:29:43.799Z,51.10
2022-08-21T19:32:10.995Z,51.40
2022-08-21T19:34:38.494Z,51.40
2022-08-21T19:37:06.357Z,51.50
2022-08-21T19:39:38.162Z,51.70
2022-08-21T19:42:06.362Z,51.30
2022-08-21T19:44:37.936Z,51.80
2022-08-21T19:47:10.352Z,51.70
2022-08-21T19:49:37.335Z,52.40
2022-08-21T19:52:12.927Z,52.20
2022-08-21T19:54:50.930Z,52.30
2022-08-21T19:57:17.680Z,52.40
2022-08-21T19:59:44.937Z,52.40
2022-08-21T20:02:13.182Z,52.60
2022-08-21T20:04:40.133Z,52.80
2022-08-21T20:07:26.327Z,52.30
2022-08-21T20:09:54.226Z,52.70
2022-08-21T20:12:21.217Z,53.60
2022-08-21T20:14:48.221Z,53.80
2022-08-21T20:17:16.726Z,53.70
2022-08-21T20:19:48.305Z,53.50
2022-08-21T20:22:17.206Z,53.20
2022-08-21T20:24:44.280Z,53.30
2022-08-21T20:27:13.301Z,53.50
2022-08-21T20:29:40.232Z,53.80
2022-08-21T20:34:59.044Z,53.60
2022-08-21T20:37:37.012Z,53.70
2022-08-21T20:40:11.471Z,53.50
2022-08-21T20:42:40.465Z,54.00
2022-08-21T20:45:08.738Z,53.60
2022-08-21T20:47:37.609Z,53.80
2022-08-21T20:50:11.567Z,53.80
2022-08-21T20:52:41.614Z,53.70
2022-08-21T20:55:14.211Z,53.70
2022-08-21T20:58:00.249Z,53.70
2022-08-21T21:00:28.079Z,54.00
2022-08-21T21:03:13.934Z,54.50
2022-08-21T21:08:46.654Z,54.00
2022-08-21T21:11:22.526Z,54.00
2022-08-21T21:13:52.565Z,54.30
2022-08-21T21:16:32.315Z,54.40
2022-08-21T21:19:02.565Z,54.80
2022-08-21T21:21:32.998Z,54.70
2022-08-21T21:24:04.567Z,54.70
2022-08-21T21:26:39.129Z,54.30
2022-08-21T21:29:24.481Z,55.00
2022-08-21T21:31:52.435Z,54.90
2022-08-21T21:34:21.864Z,55.40
2022-08-21T21:37:00.851Z,55.00
2022-08-21T21:39:36.505Z,55.40
2022-08-21T21:42:10.342Z,54.90
2022-08-21T21:44:47.413Z,55.10
2022-08-21T21:47:37.409Z,54.90
2022-08-21T21:50:18.797Z,54.70
2022-08-21T21:52:46.109Z,54.80
2022-08-21T21:55:13.542Z,54.90
2022-08-21T21:57:52.352Z,55.30
2022-08-21T22:00:22.017Z,55.10
2022-08-21T22:03:05.765Z,55.20
2022-08-21T22:05:40.132Z,55.80
2022-08-21T22:08:12.720Z,55.40
2022-08-21T22:10:58.645Z,55.00
2022-08-21T22:13:33.422Z,55.40
2022-08-21T22:16:05.594Z,55.60
2022-08-21T22:18:35.300Z,55.50
2022-08-21T22:21:09.780Z,55.40
2022-08-21T22:23:42.529Z,55.70
2022-08-21T22:26:12.922Z,56.10
2022-08-21T22:28:41.757Z,55.30
2022-08-21T22:31:14.843Z,55.90
2022-08-21T22:33:59.646Z,55.70
2022-08-21T22:36:29.473Z,55.20
2022-08-21T22:38:56.133Z,55.40
2022-08-21T22:41:24.611Z,56.10
2022-08-21T22:43:59.832Z,56.90
2022-08-21T22:46:47.249Z,56.60
2022-08-21T22:49:25.294Z,57.30
2022-08-21T22:51:55.152Z,56.80
2022-08-21T22:54:23.952Z,56.60
2022-08-21T22:57:05.124Z,57.50
2022-08-21T22:59:37.068Z,58.10
2022-08-21T23:02:07.773Z,62.90
2022-08-21T23:04:45.231Z,58.10
2022-08-21T23:07:12.178Z,61.60
2022-08-21T23:09:47.007Z,57.70
2022-08-21T23:12:33.205Z,59.70
2022-08-21T23:15:11.887Z,62.00
2022-08-21T23:18:00.935Z,58.40
2022-08-21T23:20:35.024Z,56.30
2022-08-21T23:23:07.751Z,54.90
2022-08-21T23:25:40.412Z,55.10
2022-08-21T23:28:14.487Z,53.30
2022-08-21T23:30:44.961Z,52.30
2022-08-21T23:33:20.410Z,52.80
2022-08-21T23:36:08.778Z,53.20
2022-08-21T23:38:51.311Z,54.70
2022-08-21T23:41:38.573Z,53.30
2022-08-21T23:44:15.957Z,53.10
2022-08-21T23:47:00.956Z,52.60
2022-08-21T23:49:27.647Z,54.70
2022-08-21T23:52:12.472Z,52.00
2022-08-21T23:54:59.936Z,52.80
2022-08-21T23:57:50.852Z,53.00
